Darstellungsparameter: Aktuell verwendete Einstellungen:
Skalierung der Graphiken ... ?
xyx+y,   Skalierungsfaktor:      Skalierung: Modus: x, Faktor: 1
Darstellungszeitraum ... ?
Vom - - bis: - -   Zeitraum: 14.03.2019 - 16.03.2019
Min/Max/Avg-Anzeige ... ?
Zeige MMA aktuell
Zeige MMA Monat
Zeige MMA alles
Zeige --A aktuell
Zeige --A Monat
Zeige --A alles
Keine MMA-Anzeige
MMA:
Average (ber die Originaldaten)
MMA-Basis: 14.03.2019 - 16.03.2019
Quicknavigation für Darstellung... ?
Tage:      1T, 2T, 3T, 5T -1T -2T -3T -5T +1T +2T +3T +5T
Wochen: 1W, 2W, 3W -1W -2W -3W +1W +2W +3W
Monate: 1M, 3M, 6M -1M -3M -6M +1M +3M +6M
Jahre:    1J, 3J, 5J, 10J -1J -3J -5J -10J +1J +3J +5J +10J
Nutze für die Darstellung ... ?
Originaldaten oder Mittelwerte auf ...
Stundenbasis Tagesbasis Wochenbasis
Monatsbasis Jahresbasis      Datenbasis: Original-Daten
Darstellen als:
Statistik (Auto) Statistik J:M      Darstellung:
Zur Graphik,    zurück zur Übersicht aller Sensoren.
 
Tabellarische Datenbersicht: ?
 
Sensor: Nr:Datum:Temp:Abs-Feuchte:Windchill:Wind:
Aussen-T/F 1 14-03-2019 00:00:00 4.6 C 6.15 g/m*3 1.34 C 14.5 km/h
2 14-03-2019 00:05:00 4.6 C 6.15 g/m*3 2.25 C 9.7 km/h
3 14-03-2019 00:10:00 4.6 C 6.15 g/m*3 1.61 C 12.9 km/h
4 14-03-2019 00:15:00 4.6 C 6.15 g/m*3 2.64 C 8.1 km/h
5 14-03-2019 00:20:00 4.6 C 6.15 g/m*3 1.09 C 16.1 km/h
6 14-03-2019 00:25:00 4.6 C 6.15 g/m*3 1.61 C 12.9 km/h
7 14-03-2019 00:30:00 4.6 C 6.09 g/m*3 2.25 C 9.7 km/h
8 14-03-2019 00:35:00 4.6 C 6.09 g/m*3 2.25 C 9.7 km/h
9 14-03-2019 00:40:00 4.6 C 6.09 g/m*3 1.34 C 14.5 km/h
10 14-03-2019 00:45:00 4.7 C 6.13 g/m*3 1.21 C 16.1 km/h
11 14-03-2019 00:50:00 4.8 C 6.17 g/m*3 0.35 C 24.1 km/h
12 14-03-2019 00:55:00 4.9 C 6.14 g/m*3 1.97 C 12.9 km/h
13 14-03-2019 01:00:00 5 C 6.18 g/m*3 1.58 C 16.1 km/h
14 14-03-2019 01:05:00 5.1 C 6.16 g/m*3 2.22 C 12.9 km/h
15 14-03-2019 01:10:00 5.2 C 6.2 g/m*3 2.07 C 14.5 km/h
16 14-03-2019 01:15:00 5.2 C 6.27 g/m*3 2.63 C 11.3 km/h
17 14-03-2019 01:20:00 5.2 C 6.2 g/m*3 2.07 C 14.5 km/h
18 14-03-2019 01:25:00 5.2 C 6.2 g/m*3 2.96 C 9.7 km/h
19 14-03-2019 01:30:00 5.2 C 6.2 g/m*3 2.96 C 9.7 km/h
20 14-03-2019 01:35:00 5.2 C 6.27 g/m*3 5.2 C 4.8 km/h
21 14-03-2019 01:40:00 5.1 C 6.22 g/m*3 5.1 C 3.2 km/h
22 14-03-2019 01:45:00 5.1 C 6.22 g/m*3 5.1 C 4.8 km/h
23 14-03-2019 01:50:00 5.1 C 6.22 g/m*3 5.1 C 4.8 km/h
24 14-03-2019 01:55:00 5 C 6.18 g/m*3 3.59 C 6.4 km/h
25 14-03-2019 02:00:00 5 C 6.18 g/m*3 3.11 C 8.1 km/h
Sensor: Nr:Datum:Temp:Abs-Feuchte:Windchill:Wind:
Aussen-T/F 26 14-03-2019 02:05:00 5 C 6.25 g/m*3 3.59 C 6.4 km/h
27 14-03-2019 02:10:00 4.9 C 6.21 g/m*3 2.99 C 8.1 km/h
28 14-03-2019 02:15:00 4.9 C 6.21 g/m*3 3.48 C 6.4 km/h
29 14-03-2019 02:20:00 4.9 C 6.21 g/m*3 4.9 C 4.8 km/h
30 14-03-2019 02:25:00 4.9 C 6.21 g/m*3 4.9 C 4.8 km/h
31 14-03-2019 02:30:00 4.8 C 6.17 g/m*3 2.87 C 8.1 km/h
32 14-03-2019 02:35:00 4.8 C 6.17 g/m*3 2.87 C 8.1 km/h
33 14-03-2019 02:40:00 4.7 C 6.13 g/m*3 2.37 C 9.7 km/h
34 14-03-2019 02:45:00 4.7 C 6.13 g/m*3 2.76 C 8.1 km/h
35 14-03-2019 02:50:00 4.6 C 6.09 g/m*3 1.91 C 11.3 km/h
36 14-03-2019 02:55:00 4.6 C 6.09 g/m*3 2.64 C 8.1 km/h
37 14-03-2019 03:00:00 4.4 C 6.01 g/m*3 2.9 C 6.4 km/h
38 14-03-2019 03:05:00 4.4 C 6.01 g/m*3 2.9 C 6.4 km/h
39 14-03-2019 03:10:00 4.4 C 6.01 g/m*3 2.9 C 6.4 km/h
40 14-03-2019 03:15:00 4.4 C 6.07 g/m*3 4.4 C 3.2 km/h
41 14-03-2019 03:20:00 4.4 C 6.07 g/m*3 4.4 C 3.2 km/h
42 14-03-2019 03:25:00 4.3 C 6.03 g/m*3 4.3 C 4.8 km/h
43 14-03-2019 03:30:00 4.4 C 6.07 g/m*3 2.9 C 6.4 km/h
44 14-03-2019 03:35:00 4.4 C 6.07 g/m*3 4.4 C 4.8 km/h
45 14-03-2019 03:40:00 4.4 C 6.07 g/m*3 2.4 C 8.1 km/h
46 14-03-2019 03:45:00 4.6 C 6.22 g/m*3 2.25 C 9.7 km/h
47 14-03-2019 03:50:00 4.7 C 6.26 g/m*3 2.76 C 8.1 km/h
48 14-03-2019 03:55:00 4.8 C 6.3 g/m*3 2.49 C 9.7 km/h
49 14-03-2019 04:00:00 4.8 C 6.3 g/m*3 4.8 C 3.2 km/h
50 14-03-2019 04:05:00 4.8 C 6.3 g/m*3 3.36 C 6.4 km/h
Sensor: Nr:Datum:Temp:Abs-Feuchte:Windchill:Wind:
Aussen-T/F 51 14-03-2019 04:10:00 4.9 C 6.28 g/m*3 2.99 C 8.1 km/h
52 14-03-2019 04:15:00 4.9 C 6.35 g/m*3 2.99 C 8.1 km/h
53 14-03-2019 04:20:00 4.9 C 6.28 g/m*3 3.48 C 6.4 km/h
54 14-03-2019 04:25:00 5 C 6.39 g/m*3 1.36 C 17.7 km/h
55 14-03-2019 04:30:00 5.1 C 6.36 g/m*3 3.23 C 8.1 km/h
56 14-03-2019 04:35:00 5.2 C 6.4 g/m*3 3.82 C 6.4 km/h
57 14-03-2019 04:40:00 5.2 C 6.4 g/m*3 3.82 C 6.4 km/h
58 14-03-2019 04:45:00 5.2 C 6.4 g/m*3 3.34 C 8.1 km/h
59 14-03-2019 04:50:00 5.3 C 6.45 g/m*3 3.94 C 6.4 km/h
60 14-03-2019 04:55:00 5.3 C 6.45 g/m*3 3.46 C 8.1 km/h
61 14-03-2019 05:00:00 5.4 C 6.49 g/m*3 3.58 C 8.1 km/h
62 14-03-2019 05:05:00 5.5 C 6.53 g/m*3 4.17 C 6.4 km/h
63 14-03-2019 05:10:00 5.6 C 6.57 g/m*3 4.29 C 6.4 km/h
64 14-03-2019 05:15:00 5.6 C 6.5 g/m*3 5.6 C 4.8 km/h
65 14-03-2019 05:20:00 5.6 C 6.5 g/m*3 3.81 C 8.1 km/h
66 14-03-2019 05:25:00 5.7 C 6.55 g/m*3 3.23 C 11.3 km/h
67 14-03-2019 05:30:00 5.8 C 6.59 g/m*3 3.68 C 9.7 km/h
68 14-03-2019 05:35:00 5.8 C 6.52 g/m*3 2.36 C 17.7 km/h
69 14-03-2019 05:40:00 5.9 C 6.56 g/m*3 4.17 C 8.1 km/h
70 14-03-2019 05:45:00 5.9 C 6.56 g/m*3 4.17 C 8.1 km/h
71 14-03-2019 05:50:00 6 C 6.53 g/m*3 4.75 C 6.4 km/h
72 14-03-2019 05:55:00 6 C 6.53 g/m*3 3.31 C 12.9 km/h
73 14-03-2019 06:00:00 6.1 C 6.58 g/m*3 6.1 C 3.2 km/h
74 14-03-2019 06:05:00 6.1 C 6.58 g/m*3 4.4 C 8.1 km/h
75 14-03-2019 06:10:00 6.1 C 6.58 g/m*3 4.86 C 6.4 km/h
Sensor: Nr:Datum:Temp:Abs-Feuchte:Windchill:Wind:
Aussen-T/F 76 14-03-2019 06:15:00 6.1 C 6.5 g/m*3 4.4 C 8.1 km/h
77 14-03-2019 06:20:00 6.1 C 6.5 g/m*3 4.86 C 6.4 km/h
78 14-03-2019 06:25:00 6.1 C 6.58 g/m*3 4.04 C 9.7 km/h
79 14-03-2019 06:30:00 6.1 C 6.5 g/m*3 4.86 C 6.4 km/h
80 14-03-2019 06:35:00 6.1 C 6.5 g/m*3 4.04 C 9.7 km/h
81 14-03-2019 06:40:00 6.2 C 6.55 g/m*3 4.98 C 6.4 km/h
82 14-03-2019 06:45:00 6.2 C 6.55 g/m*3 4.15 C 9.7 km/h
83 14-03-2019 06:50:00 6.2 C 6.55 g/m*3 2.48 C 20.9 km/h
84 14-03-2019 06:55:00 6.2 C 6.47 g/m*3 3.84 C 11.3 km/h
85 14-03-2019 07:00:00 6.2 C 6.47 g/m*3 3.3 C 14.5 km/h
86 14-03-2019 07:05:00 6.3 C 6.51 g/m*3 3.68 C 12.9 km/h
87 14-03-2019 07:10:00 6.3 C 6.51 g/m*3 3.96 C 11.3 km/h
88 14-03-2019 07:15:00 6.3 C 6.51 g/m*3 3.96 C 11.3 km/h
89 14-03-2019 07:20:00 6.3 C 6.51 g/m*3 3.43 C 14.5 km/h
90 14-03-2019 07:25:00 6.3 C 6.51 g/m*3 3.68 C 12.9 km/h
91 14-03-2019 07:30:00 6.3 C 6.44 g/m*3 3.43 C 14.5 km/h
92 14-03-2019 07:35:00 6.3 C 6.44 g/m*3 3.43 C 14.5 km/h
93 14-03-2019 07:40:00 6.4 C 6.48 g/m*3 3.32 C 16.1 km/h
94 14-03-2019 07:45:00 6.4 C 6.41 g/m*3 2.91 C 19.3 km/h
95 14-03-2019 07:50:00 6.5 C 6.45 g/m*3 3.67 C 14.5 km/h
96 14-03-2019 07:55:00 6.6 C 6.49 g/m*3 4.04 C 12.9 km/h
97 14-03-2019 08:00:00 6.6 C 6.49 g/m*3 4.63 C 9.7 km/h
98 14-03-2019 08:05:00 6.6 C 6.49 g/m*3 3.79 C 14.5 km/h
99 14-03-2019 08:10:00 6.7 C 6.46 g/m*3 4.44 C 11.3 km/h
100 14-03-2019 08:15:00 6.7 C 6.46 g/m*3 3.92 C 14.5 km/h
Sensor: Nr:Datum:Temp:Abs-Feuchte:Windchill:Wind:
Aussen-T/F 101 14-03-2019 08:20:00 6.7 C 6.46 g/m*3 3.92 C 14.5 km/h
102 14-03-2019 08:25:00 6.7 C 6.46 g/m*3 3.92 C 14.5 km/h
103 14-03-2019 08:30:00 6.8 C 6.5 g/m*3 4.56 C 11.3 km/h
104 14-03-2019 08:35:00 6.8 C 6.5 g/m*3 4.56 C 11.3 km/h
105 14-03-2019 08:40:00 6.8 C 6.5 g/m*3 4.04 C 14.5 km/h
106 14-03-2019 08:45:00 6.7 C 6.53 g/m*3 4.17 C 12.9 km/h
107 14-03-2019 08:50:00 6.7 C 6.61 g/m*3 5.56 C 6.4 km/h
108 14-03-2019 08:55:00 6.7 C 6.61 g/m*3 3.69 C 16.1 km/h
109 14-03-2019 09:00:00 6.6 C 6.64 g/m*3 4.32 C 11.3 km/h
110 14-03-2019 09:05:00 6.5 C 6.6 g/m*3 3.92 C 12.9 km/h
111 14-03-2019 09:10:00 6.5 C 6.67 g/m*3 4.51 C 9.7 km/h
112 14-03-2019 09:15:00 6.4 C 6.63 g/m*3 4.08 C 11.3 km/h
113 14-03-2019 09:20:00 6.4 C 6.63 g/m*3 4.39 C 9.7 km/h
114 14-03-2019 09:25:00 6.4 C 6.63 g/m*3 4.39 C 9.7 km/h
115 14-03-2019 09:30:00 6.3 C 6.59 g/m*3 4.64 C 8.1 km/h
116 14-03-2019 09:35:00 6.3 C 6.59 g/m*3 3.43 C 14.5 km/h
117 14-03-2019 09:40:00 6.4 C 6.63 g/m*3 3.55 C 14.5 km/h
118 14-03-2019 09:45:00 6.4 C 6.63 g/m*3 3.8 C 12.9 km/h
119 14-03-2019 09:50:00 6.4 C 6.63 g/m*3 2.91 C 19.3 km/h
120 14-03-2019 09:55:00 6.4 C 6.63 g/m*3 3.8 C 12.9 km/h
121 14-03-2019 10:00:00 6.5 C 6.67 g/m*3 3.92 C 12.9 km/h
122 14-03-2019 10:05:00 6.5 C 6.67 g/m*3 4.51 C 9.7 km/h
123 14-03-2019 10:10:00 6.5 C 6.67 g/m*3 3.67 C 14.5 km/h
124 14-03-2019 10:15:00 6.5 C 6.6 g/m*3 3.92 C 12.9 km/h
125 14-03-2019 10:20:00 6.5 C 6.6 g/m*3 2.86 C 20.9 km/h
Sensor: Nr:Datum:Temp:Abs-Feuchte:Windchill:Wind:
Aussen-T/F 126 14-03-2019 10:25:00 6.6 C 6.64 g/m*3 3.36 C 17.7 km/h
127 14-03-2019 10:30:00 6.6 C 6.64 g/m*3 3.79 C 14.5 km/h
128 14-03-2019 10:35:00 6.6 C 6.64 g/m*3 3.36 C 17.7 km/h
129 14-03-2019 10:40:00 6.6 C 6.64 g/m*3 4.04 C 12.9 km/h
130 14-03-2019 10:45:00 6.6 C 6.64 g/m*3 4.04 C 12.9 km/h
131 14-03-2019 10:50:00 6.6 C 6.64 g/m*3 3.17 C 19.3 km/h
132 14-03-2019 10:55:00 6.5 C 6.6 g/m*3 3.23 C 17.7 km/h
133 14-03-2019 11:00:00 6.5 C 6.67 g/m*3 4.2 C 11.3 km/h
134 14-03-2019 11:05:00 6.5 C 6.67 g/m*3 3.23 C 17.7 km/h
135 14-03-2019 11:10:00 6.4 C 6.63 g/m*3 4.08 C 11.3 km/h
136 14-03-2019 11:15:00 6.4 C 6.63 g/m*3 3.8 C 12.9 km/h
137 14-03-2019 11:20:00 6.5 C 6.67 g/m*3 3.23 C 17.7 km/h
138 14-03-2019 11:25:00 6.5 C 6.67 g/m*3 3.44 C 16.1 km/h
139 14-03-2019 11:30:00 6.5 C 6.67 g/m*3 3.44 C 16.1 km/h
140 14-03-2019 11:35:00 6.6 C 6.72 g/m*3 4.04 C 12.9 km/h
141 14-03-2019 11:40:00 6.6 C 6.72 g/m*3 3.79 C 14.5 km/h
142 14-03-2019 11:45:00 6.7 C 6.84 g/m*3 4.17 C 12.9 km/h
143 14-03-2019 11:50:00 6.7 C 6.76 g/m*3 4.44 C 11.3 km/h
144 14-03-2019 11:55:00 6.8 C 6.81 g/m*3 3.42 C 19.3 km/h
145 14-03-2019 12:00:00 6.9 C 6.85 g/m*3 3.2 C 22.5 km/h
146 14-03-2019 12:05:00 7.1 C 6.94 g/m*3 4.41 C 14.5 km/h
147 14-03-2019 12:10:00 7.1 C 6.86 g/m*3 4.65 C 12.9 km/h
148 14-03-2019 12:15:00 7.2 C 6.91 g/m*3 3.28 C 25.7 km/h
149 14-03-2019 12:20:00 7.2 C 6.91 g/m*3 3.28 C 25.7 km/h
150 14-03-2019 12:25:00 7.2 C 6.91 g/m*3 4.11 C 17.7 km/h
Sensor: Nr:Datum:Temp:Abs-Feuchte:Windchill:Wind:
Aussen-T/F 151 14-03-2019 12:30:00 7.2 C 6.91 g/m*3 4.31 C 16.1 km/h
152 14-03-2019 12:35:00 7.1 C 6.86 g/m*3 3.8 C 19.3 km/h
153 14-03-2019 12:40:00 7.1 C 6.94 g/m*3 4.19 C 16.1 km/h
154 14-03-2019 12:45:00 7.2 C 7.06 g/m*3 3.92 C 19.3 km/h
155 14-03-2019 12:50:00 7.2 C 7.06 g/m*3 3.92 C 19.3 km/h
156 14-03-2019 12:55:00 7.3 C 7.11 g/m*3 4.05 C 19.3 km/h
157 14-03-2019 13:00:00 7.3 C 7.11 g/m*3 3.01 C 30.6 km/h
158 14-03-2019 13:05:00 7.3 C 7.03 g/m*3 2.66 C 35.4 km/h
159 14-03-2019 13:10:00 7.3 C 7.11 g/m*3 3.71 C 22.5 km/h
160 14-03-2019 13:15:00 7.3 C 7.11 g/m*3 3.55 C 24.1 km/h
161 14-03-2019 13:20:00 7.3 C 7.03 g/m*3 3.26 C 27.4 km/h
162 14-03-2019 13:25:00 7.3 C 7.03 g/m*3 3.71 C 22.5 km/h
163 14-03-2019 13:30:00 7.3 C 6.95 g/m*3 3.26 C 27.4 km/h
164 14-03-2019 13:35:00 7.3 C 6.95 g/m*3 3.87 C 20.9 km/h
165 14-03-2019 13:40:00 7.3 C 6.95 g/m*3 2.89 C 32.2 km/h
166 14-03-2019 13:45:00 7.3 C 6.87 g/m*3 3.26 C 27.4 km/h
167 14-03-2019 13:50:00 7.3 C 6.87 g/m*3 3.55 C 24.1 km/h
168 14-03-2019 13:55:00 7.4 C 6.92 g/m*3 3.39 C 27.4 km/h
169 14-03-2019 14:00:00 7.4 C 6.92 g/m*3 3.68 C 24.1 km/h
170 14-03-2019 14:05:00 7.4 C 6.92 g/m*3 3.54 C 25.7 km/h
171 14-03-2019 14:10:00 7.4 C 6.92 g/m*3 3.68 C 24.1 km/h
172 14-03-2019 14:15:00 7.4 C 6.92 g/m*3 3.26 C 29 km/h
173 14-03-2019 14:20:00 7.4 C 7 g/m*3 3.84 C 22.5 km/h
174 14-03-2019 14:25:00 7.4 C 7 g/m*3 4.17 C 19.3 km/h
175 14-03-2019 14:30:00 7.3 C 6.95 g/m*3 4.05 C 19.3 km/h
Sensor: Nr:Datum:Temp:Abs-Feuchte:Windchill:Wind:
Aussen-T/F 176 14-03-2019 14:35:00 7.3 C 6.87 g/m*3 2.66 C 35.4 km/h
177 14-03-2019 14:40:00 7.3 C 6.95 g/m*3 3.55 C 24.1 km/h
178 14-03-2019 14:45:00 7.3 C 7.03 g/m*3 4.05 C 19.3 km/h
179 14-03-2019 14:50:00 7.2 C 6.99 g/m*3 3.75 C 20.9 km/h
180 14-03-2019 14:55:00 7.2 C 7.06 g/m*3 3 C 29 km/h
181 14-03-2019 15:00:00 7.3 C 7.11 g/m*3 3.87 C 20.9 km/h
182 14-03-2019 15:05:00 7.3 C 7.19 g/m*3 4.05 C 19.3 km/h
183 14-03-2019 15:10:00 7.5 C 7.2 g/m*3 3.67 C 25.7 km/h
184 14-03-2019 15:15:00 7.7 C 7.3 g/m*3 4.38 C 20.9 km/h
185 14-03-2019 15:20:00 7.8 C 7.35 g/m*3 5.27 C 14.5 km/h
186 14-03-2019 15:25:00 7.8 C 7.26 g/m*3 4.51 C 20.9 km/h
187 14-03-2019 15:30:00 7.8 C 7.26 g/m*3 5.06 C 16.1 km/h
188 14-03-2019 15:35:00 7.8 C 7.35 g/m*3 4.2 C 24.1 km/h
189 14-03-2019 15:40:00 7.8 C 7.35 g/m*3 4.35 C 22.5 km/h
190 14-03-2019 15:45:00 7.8 C 7.43 g/m*3 4.68 C 19.3 km/h
191 14-03-2019 15:50:00 7.8 C 7.43 g/m*3 5.27 C 14.5 km/h
192 14-03-2019 15:55:00 7.9 C 7.47 g/m*3 4.47 C 22.5 km/h
193 14-03-2019 16:00:00 8.1 C 7.49 g/m*3 4.89 C 20.9 km/h
194 14-03-2019 16:05:00 8.3 C 7.5 g/m*3 4.56 C 27.4 km/h
195 14-03-2019 16:10:00 8.6 C 7.56 g/m*3 5.22 C 24.1 km/h
196 14-03-2019 16:15:00 8.8 C 7.57 g/m*3 5.93 C 19.3 km/h
197 14-03-2019 16:20:00 8.9 C 7.45 g/m*3 6.23 C 17.7 km/h
198 14-03-2019 16:25:00 9.1 C 7.54 g/m*3 6.87 C 14.5 km/h
199 14-03-2019 16:30:00 9.1 C 7.54 g/m*3 6 C 22.5 km/h
200 14-03-2019 16:35:00 9.2 C 7.59 g/m*3 6.99 C 14.5 km/h
Sensor: Nr:Datum:Temp:Abs-Feuchte:Windchill:Wind:
Aussen-T/F 201 14-03-2019 16:40:00 9.1 C 7.54 g/m*3 7.09 C 12.9 km/h
202 14-03-2019 16:45:00 9.1 C 7.54 g/m*3 7.33 C 11.3 km/h
203 14-03-2019 16:50:00 9.1 C 7.54 g/m*3 6.87 C 14.5 km/h
204 14-03-2019 16:55:00 9.1 C 7.54 g/m*3 6.87 C 14.5 km/h
205 14-03-2019 17:00:00 9.2 C 7.77 g/m*3 6.44 C 19.3 km/h
206 14-03-2019 17:05:00 9.2 C 7.77 g/m*3 6.79 C 16.1 km/h
207 14-03-2019 17:10:00 9.2 C 7.77 g/m*3 6.61 C 17.7 km/h
208 14-03-2019 17:15:00 9.2 C 7.77 g/m*3 7.46 C 11.3 km/h
209 14-03-2019 17:20:00 9.4 C 7.87 g/m*3 6.53 C 20.9 km/h
210 14-03-2019 17:25:00 9.8 C 7.89 g/m*3 7.04 C 20.9 km/h
211 14-03-2019 17:30:00 10.2 C 7.99 g/m*3 7.7 C 19.3 km/h
212 14-03-2019 17:35:00 10.4 C 8 g/m*3 7.66 C 22.5 km/h
213 14-03-2019 17:40:00 10.6 C 8 g/m*3 9.14 C 11.3 km/h
214 14-03-2019 17:45:00 10.5 C 7.95 g/m*3 9.28 C 9.7 km/h
215 14-03-2019 17:50:00 10.3 C 7.85 g/m*3 7.98 C 17.7 km/h
216 14-03-2019 17:55:00 10.3 C 7.95 g/m*3 8.34 C 14.5 km/h
217 14-03-2019 18:00:00 10.2 C 7.9 g/m*3 8.22 C 14.5 km/h
218 14-03-2019 18:05:00 10.1 C 7.94 g/m*3 9.1 C 8.1 km/h
219 14-03-2019 18:10:00 10 C 7.89 g/m*3 10 C 4.8 km/h
220 14-03-2019 18:15:00 9.9 C 7.94 g/m*3 9.9 C 4.8 km/h
221 14-03-2019 18:20:00 9.8 C 7.79 g/m*3 8.75 C 8.1 km/h
222 14-03-2019 18:25:00 9.7 C 7.74 g/m*3 8.33 C 9.7 km/h
223 14-03-2019 18:30:00 9.7 C 7.65 g/m*3 8.06 C 11.3 km/h
224 14-03-2019 18:35:00 9.8 C 7.7 g/m*3 8.75 C 8.1 km/h
225 14-03-2019 18:40:00 9.8 C 7.52 g/m*3 7.73 C 14.5 km/h
Sensor: Nr:Datum:Temp:Abs-Feuchte:Windchill:Wind:
Aussen-T/F 226 14-03-2019 18:45:00 9.8 C 7.52 g/m*3 8.75 C 8.1 km/h
227 14-03-2019 18:50:00 9.8 C 7.42 g/m*3 7.94 C 12.9 km/h
228 14-03-2019 18:55:00 9.9 C 7.38 g/m*3 8.3 C 11.3 km/h
229 14-03-2019 19:00:00 9.9 C 7.47 g/m*3 7.48 C 17.7 km/h
230 14-03-2019 19:05:00 9.8 C 7.05 g/m*3 7.36 C 17.7 km/h
231 14-03-2019 19:10:00 9.9 C 7.1 g/m*3 8.3 C 11.3 km/h
232 14-03-2019 19:15:00 9.9 C 7 g/m*3 8.3 C 11.3 km/h
233 14-03-2019 19:20:00 9.9 C 6.82 g/m*3 7.66 C 16.1 km/h
234 14-03-2019 19:25:00 9.9 C 6.82 g/m*3 6.89 C 24.1 km/h
235 14-03-2019 19:30:00 9.9 C 6.91 g/m*3 7.48 C 17.7 km/h
236 14-03-2019 19:35:00 9.8 C 7.14 g/m*3 7.36 C 17.7 km/h
237 14-03-2019 19:40:00 9.3 C 7.1 g/m*3 6.92 C 16.1 km/h
238 14-03-2019 19:45:00 8.9 C 7.1 g/m*3 8.1 C 6.4 km/h
239 14-03-2019 19:50:00 8.7 C 7.09 g/m*3 7.87 C 6.4 km/h
240 14-03-2019 19:55:00 8.6 C 7.13 g/m*3 6.48 C 12.9 km/h
241 14-03-2019 20:00:00 8.3 C 7.08 g/m*3 6.66 C 9.7 km/h
242 14-03-2019 20:05:00 8.3 C 7.16 g/m*3 5.89 C 14.5 km/h
243 14-03-2019 20:10:00 8.2 C 7.12 g/m*3 5.99 C 12.9 km/h
244 14-03-2019 20:15:00 8.1 C 7.16 g/m*3 7.17 C 6.4 km/h
245 14-03-2019 20:20:00 7.9 C 6.98 g/m*3 4.8 C 19.3 km/h
246 14-03-2019 20:25:00 7.9 C 6.98 g/m*3 6.52 C 8.1 km/h
247 14-03-2019 20:30:00 7.9 C 7.06 g/m*3 7.9 C 3.2 km/h
248 14-03-2019 20:35:00 7.8 C 7.02 g/m*3 6.83 C 6.4 km/h
249 14-03-2019 20:40:00 7.8 C 6.94 g/m*3 6.06 C 9.7 km/h
250 14-03-2019 20:45:00 7.8 C 6.94 g/m*3 7.8 C 3.2 km/h
Sensor: Nr:Datum:Temp:Abs-Feuchte:Windchill:Wind:
Aussen-T/F 251 14-03-2019 20:50:00 7.8 C 6.94 g/m*3 6.4 C 8.1 km/h
252 14-03-2019 20:55:00 7.8 C 6.86 g/m*3 6.4 C 8.1 km/h
253 14-03-2019 21:00:00 7.9 C 6.9 g/m*3 6.94 C 6.4 km/h
254 14-03-2019 21:05:00 7.9 C 6.9 g/m*3 6.52 C 8.1 km/h
255 14-03-2019 21:10:00 8 C 6.94 g/m*3 8 C 4.8 km/h
256 14-03-2019 21:15:00 8.1 C 6.91 g/m*3 6.75 C 8.1 km/h
257 14-03-2019 21:20:00 8.2 C 6.95 g/m*3 7.29 C 6.4 km/h
258 14-03-2019 21:25:00 8.3 C 7 g/m*3 8.3 C 4.8 km/h
259 14-03-2019 21:30:00 8.3 C 6.91 g/m*3 6.99 C 8.1 km/h
260 14-03-2019 21:35:00 8.4 C 6.96 g/m*3 7.52 C 6.4 km/h
261 14-03-2019 21:40:00 8.4 C 6.96 g/m*3 7.52 C 6.4 km/h
262 14-03-2019 21:45:00 8.4 C 7.04 g/m*3 8.4 C 1.6 km/h
263 14-03-2019 21:50:00 8.3 C 7 g/m*3 8.3 C 3.2 km/h
264 14-03-2019 21:55:00 8.2 C 6.95 g/m*3 6.54 C 9.7 km/h
265 14-03-2019 22:00:00 8.2 C 6.87 g/m*3 6.54 C 9.7 km/h
266 14-03-2019 22:05:00 8.3 C 6.91 g/m*3 6.12 C 12.9 km/h
267 14-03-2019 22:10:00 8.4 C 6.87 g/m*3 6.49 C 11.3 km/h
268 14-03-2019 22:15:00 8.4 C 6.79 g/m*3 6.78 C 9.7 km/h
269 14-03-2019 22:20:00 8.5 C 6.74 g/m*3 5.56 C 19.3 km/h
270 14-03-2019 22:25:00 8.6 C 6.79 g/m*3 7.34 C 8.1 km/h
271 14-03-2019 22:30:00 8.6 C 6.79 g/m*3 7.34 C 8.1 km/h
272 14-03-2019 22:35:00 8.4 C 6.7 g/m*3 5.8 C 16.1 km/h
273 14-03-2019 22:40:00 8.4 C 6.7 g/m*3 6.78 C 9.7 km/h
274 14-03-2019 22:45:00 8.3 C 6.66 g/m*3 6.37 C 11.3 km/h
275 14-03-2019 22:50:00 8.3 C 6.66 g/m*3 6.12 C 12.9 km/h
Sensor: Nr:Datum:Temp:Abs-Feuchte:Windchill:Wind:
Aussen-T/F 276 14-03-2019 22:55:00 8.2 C 6.62 g/m*3 6.25 C 11.3 km/h
277 14-03-2019 23:00:00 8.2 C 6.62 g/m*3 5.99 C 12.9 km/h
278 14-03-2019 23:05:00 8.2 C 6.62 g/m*3 6.54 C 9.7 km/h
279 14-03-2019 23:10:00 8.2 C 6.62 g/m*3 6.25 C 11.3 km/h
280 14-03-2019 23:15:00 8.2 C 6.62 g/m*3 6.25 C 11.3 km/h
281 14-03-2019 23:20:00 8.2 C 6.62 g/m*3 5.99 C 12.9 km/h
282 14-03-2019 23:25:00 8.2 C 6.62 g/m*3 5.36 C 17.7 km/h
283 14-03-2019 23:30:00 8.2 C 6.62 g/m*3 5.99 C 12.9 km/h
284 14-03-2019 23:35:00 8.2 C 6.62 g/m*3 7.29 C 6.4 km/h
285 14-03-2019 23:40:00 8.1 C 6.57 g/m*3 6.13 C 11.3 km/h
286 14-03-2019 23:45:00 8 C 6.61 g/m*3 6.01 C 11.3 km/h
287 14-03-2019 23:50:00 7.9 C 6.57 g/m*3 6.18 C 9.7 km/h
288 14-03-2019 23:55:00 7.8 C 6.53 g/m*3 5.51 C 12.9 km/h
289 15-03-2019 00:00:00 7.8 C 6.53 g/m*3 6.06 C 9.7 km/h
290 15-03-2019 00:05:00 7.7 C 6.57 g/m*3 5.94 C 9.7 km/h
291 15-03-2019 00:10:00 7.6 C 6.61 g/m*3 6.16 C 8.1 km/h
292 15-03-2019 00:15:00 7.4 C 6.52 g/m*3 5.93 C 8.1 km/h
293 15-03-2019 00:20:00 7.2 C 6.44 g/m*3 5.35 C 9.7 km/h
294 15-03-2019 00:25:00 7.1 C 6.47 g/m*3 6.02 C 6.4 km/h
295 15-03-2019 00:30:00 6.9 C 6.47 g/m*3 4.99 C 9.7 km/h
296 15-03-2019 00:35:00 6.9 C 6.47 g/m*3 4.99 C 9.7 km/h
297 15-03-2019 00:40:00 6.8 C 6.42 g/m*3 4.29 C 12.9 km/h
298 15-03-2019 00:45:00 6.7 C 6.38 g/m*3 5.56 C 6.4 km/h
299 15-03-2019 00:50:00 6.7 C 6.46 g/m*3 5.11 C 8.1 km/h
300 15-03-2019 00:55:00 6.6 C 6.42 g/m*3 4.99 C 8.1 km/h
Sensor: Nr:Datum:Temp:Abs-Feuchte:Windchill:Wind:
Aussen-T/F 301 15-03-2019 01:00:00 6.4 C 6.33 g/m*3 5.21 C 6.4 km/h
302 15-03-2019 01:05:00 6.3 C 6.29 g/m*3 5.1 C 6.4 km/h
303 15-03-2019 01:10:00 6.3 C 6.37 g/m*3 4.27 C 9.7 km/h
304 15-03-2019 01:15:00 6.3 C 6.37 g/m*3 4.64 C 8.1 km/h
305 15-03-2019 01:20:00 6.3 C 6.37 g/m*3 3.68 C 12.9 km/h
306 15-03-2019 01:25:00 6.3 C 6.37 g/m*3 5.1 C 6.4 km/h
307 15-03-2019 01:30:00 6.3 C 6.37 g/m*3 4.64 C 8.1 km/h
308 15-03-2019 01:35:00 6.4 C 6.41 g/m*3 4.75 C 8.1 km/h
309 15-03-2019 01:40:00 6.4 C 6.41 g/m*3 5.21 C 6.4 km/h
310 15-03-2019 01:45:00 6.4 C 6.41 g/m*3 4.39 C 9.7 km/h
311 15-03-2019 01:50:00 6.6 C 6.49 g/m*3 3.79 C 14.5 km/h
312 15-03-2019 01:55:00 6.6 C 6.49 g/m*3 4.63 C 9.7 km/h
313 15-03-2019 02:00:00 6.6 C 6.49 g/m*3 4.99 C 8.1 km/h
314 15-03-2019 02:05:00 6.7 C 6.53 g/m*3 5.56 C 6.4 km/h
315 15-03-2019 02:10:00 6.7 C 6.53 g/m*3 5.11 C 8.1 km/h
316 15-03-2019 02:15:00 6.8 C 6.58 g/m*3 5.22 C 8.1 km/h
317 15-03-2019 02:20:00 6.8 C 6.58 g/m*3 4.87 C 9.7 km/h
318 15-03-2019 02:25:00 6.9 C 6.62 g/m*3 5.79 C 6.4 km/h
319 15-03-2019 02:30:00 6.9 C 6.62 g/m*3 5.79 C 6.4 km/h
320 15-03-2019 02:35:00 7 C 6.59 g/m*3 5.9 C 6.4 km/h
321 15-03-2019 02:40:00 7 C 6.59 g/m*3 5.46 C 8.1 km/h
322 15-03-2019 02:45:00 7.1 C 6.63 g/m*3 7.1 C 3.2 km/h
323 15-03-2019 02:50:00 7 C 6.59 g/m*3 5.9 C 6.4 km/h
324 15-03-2019 02:55:00 6.9 C 6.54 g/m*3 6.9 C 4.8 km/h
325 15-03-2019 03:00:00 6.8 C 6.5 g/m*3 5.67 C 6.4 km/h
Sensor: Nr:Datum:Temp:Abs-Feuchte:Windchill:Wind:
Aussen-T/F 326 15-03-2019 03:05:00 6.7 C 6.53 g/m*3 5.56 C 6.4 km/h
327 15-03-2019 03:10:00 6.5 C 6.45 g/m*3 4.87 C 8.1 km/h
328 15-03-2019 03:15:00 6.4 C 6.48 g/m*3 6.4 C 3.2 km/h
329 15-03-2019 03:20:00 6.4 C 6.48 g/m*3 6.4 C 3.2 km/h
330 15-03-2019 03:25:00 6.4 C 6.48 g/m*3 4.75 C 8.1 km/h
331 15-03-2019 03:30:00 6.4 C 6.48 g/m*3 6.4 C 3.2 km/h
332 15-03-2019 03:35:00 6.3 C 6.44 g/m*3 6.3 C 3.2 km/h
333 15-03-2019 03:40:00 6.3 C 6.51 g/m*3 6.3 C 4.8 km/h
334 15-03-2019 03:45:00 6.3 C 6.51 g/m*3 6.3 C 3.2 km/h
335 15-03-2019 03:50:00 6.2 C 6.47 g/m*3 6.2 C 3.2 km/h
336 15-03-2019 03:55:00 6.2 C 6.47 g/m*3 6.2 C 4.8 km/h
337 15-03-2019 04:00:00 6.1 C 6.43 g/m*3 6.1 C 4.8 km/h
338 15-03-2019 04:05:00 6 C 6.39 g/m*3 6 C 3.2 km/h
339 15-03-2019 04:10:00 5.9 C 6.42 g/m*3 5.9 C 4.8 km/h
340 15-03-2019 04:15:00 5.9 C 6.42 g/m*3 5.9 C 3.2 km/h
341 15-03-2019 04:20:00 5.9 C 6.42 g/m*3 5.9 C 1.6 km/h
342 15-03-2019 04:25:00 5.8 C 6.38 g/m*3 5.8 C 1.6 km/h
343 15-03-2019 04:30:00 5.9 C 6.49 g/m*3 4.63 C 6.4 km/h
344 15-03-2019 04:35:00 6 C 6.53 g/m*3 6 C 4.8 km/h
345 15-03-2019 04:40:00 6.1 C 6.58 g/m*3 6.1 C 3.2 km/h
346 15-03-2019 04:45:00 6.2 C 6.62 g/m*3 4.98 C 6.4 km/h
347 15-03-2019 04:50:00 6.3 C 6.66 g/m*3 6.3 C 3.2 km/h
348 15-03-2019 04:55:00 6.4 C 6.71 g/m*3 6.4 C 4.8 km/h
349 15-03-2019 05:00:00 6.6 C 6.72 g/m*3 4.99 C 8.1 km/h
350 15-03-2019 05:05:00 6.7 C 6.76 g/m*3 5.56 C 6.4 km/h
Sensor: Nr:Datum:Temp:Abs-Feuchte:Windchill:Wind:
Aussen-T/F 351 15-03-2019 05:10:00 6.8 C 6.73 g/m*3 4.29 C 12.9 km/h
352 15-03-2019 05:15:00 6.9 C 6.77 g/m*3 5.79 C 6.4 km/h
353 15-03-2019 05:20:00 7 C 6.82 g/m*3 4.8 C 11.3 km/h
354 15-03-2019 05:25:00 7.1 C 6.79 g/m*3 5.23 C 9.7 km/h
355 15-03-2019 05:30:00 7.1 C 6.79 g/m*3 6.02 C 6.4 km/h
356 15-03-2019 05:35:00 7.1 C 6.79 g/m*3 4.92 C 11.3 km/h
357 15-03-2019 05:40:00 7.1 C 6.79 g/m*3 5.58 C 8.1 km/h
358 15-03-2019 05:45:00 7.2 C 6.83 g/m*3 5.35 C 9.7 km/h
359 15-03-2019 05:50:00 7.2 C 6.83 g/m*3 4.77 C 12.9 km/h
360 15-03-2019 05:55:00 7.3 C 6.87 g/m*3 6.25 C 6.4 km/h
361 15-03-2019 06:00:00 7.3 C 6.95 g/m*3 5.47 C 9.7 km/h
362 15-03-2019 06:05:00 7.3 C 6.95 g/m*3 5.81 C 8.1 km/h
363 15-03-2019 06:10:00 7.3 C 7.03 g/m*3 5.81 C 8.1 km/h
364 15-03-2019 06:15:00 7.3 C 7.03 g/m*3 5.81 C 8.1 km/h
365 15-03-2019 06:20:00 7.3 C 7.11 g/m*3 7.3 C 4.8 km/h
366 15-03-2019 06:25:00 7.3 C 7.11 g/m*3 7.3 C 3.2 km/h
367 15-03-2019 06:30:00 7.2 C 7.06 g/m*3 7.2 C 1.6 km/h
368 15-03-2019 06:35:00 7.2 C 7.14 g/m*3 7.2 C 0 km/h
369 15-03-2019 06:40:00 7.2 C 7.14 g/m*3 7.2 C 1.6 km/h
370 15-03-2019 06:45:00 7.1 C 7.1 g/m*3 7.1 C 3.2 km/h
371 15-03-2019 06:50:00 7.1 C 7.1 g/m*3 7.1 C 0 km/h
372 15-03-2019 06:55:00 7.1 C 7.18 g/m*3 7.1 C 1.6 km/h
373 15-03-2019 07:00:00 7 C 7.13 g/m*3 7 C 3.2 km/h
374 15-03-2019 07:05:00 7 C 7.13 g/m*3 7 C 3.2 km/h
375 15-03-2019 07:10:00 7.1 C 7.25 g/m*3 4.41 C 14.5 km/h
Sensor: Nr:Datum:Temp:Abs-Feuchte:Windchill:Wind:
Aussen-T/F 376 15-03-2019 07:15:00 7.1 C 7.25 g/m*3 6.02 C 6.4 km/h
377 15-03-2019 07:20:00 7.1 C 7.25 g/m*3 6.02 C 6.4 km/h
378 15-03-2019 07:25:00 7.1 C 7.25 g/m*3 5.58 C 8.1 km/h
379 15-03-2019 07:30:00 7.1 C 7.25 g/m*3 6.02 C 6.4 km/h
380 15-03-2019 07:35:00 7.1 C 7.25 g/m*3 4.92 C 11.3 km/h
381 15-03-2019 07:40:00 7.2 C 7.3 g/m*3 4.53 C 14.5 km/h
382 15-03-2019 07:45:00 7.2 C 7.3 g/m*3 5.04 C 11.3 km/h
383 15-03-2019 07:50:00 7.2 C 7.3 g/m*3 5.35 C 9.7 km/h
384 15-03-2019 07:55:00 7.3 C 7.35 g/m*3 5.16 C 11.3 km/h
385 15-03-2019 08:00:00 7.3 C 7.43 g/m*3 5.81 C 8.1 km/h
386 15-03-2019 08:05:00 7.3 C 7.43 g/m*3 7.3 C 4.8 km/h
387 15-03-2019 08:10:00 7.3 C 7.43 g/m*3 7.3 C 3.2 km/h
388 15-03-2019 08:15:00 7.3 C 7.43 g/m*3 7.3 C 0 km/h
389 15-03-2019 08:20:00 7.4 C 7.48 g/m*3 7.4 C 3.2 km/h
390 15-03-2019 08:25:00 7.4 C 7.48 g/m*3 7.4 C 4.8 km/h
391 15-03-2019 08:30:00 7.5 C 7.52 g/m*3 6.05 C 8.1 km/h
392 15-03-2019 08:35:00 7.6 C 7.57 g/m*3 6.16 C 8.1 km/h
393 15-03-2019 08:40:00 7.6 C 7.57 g/m*3 5.26 C 12.9 km/h
394 15-03-2019 08:45:00 7.7 C 7.62 g/m*3 5.65 C 11.3 km/h
395 15-03-2019 08:50:00 7.7 C 7.62 g/m*3 4.93 C 16.1 km/h
396 15-03-2019 08:55:00 7.8 C 7.67 g/m*3 4.86 C 17.7 km/h
397 15-03-2019 09:00:00 7.8 C 7.67 g/m*3 4.86 C 17.7 km/h
398 15-03-2019 09:05:00 7.8 C 7.67 g/m*3 6.06 C 9.7 km/h
399 15-03-2019 09:10:00 7.9 C 7.72 g/m*3 5.39 C 14.5 km/h
400 15-03-2019 09:15:00 7.9 C 7.72 g/m*3 6.52 C 8.1 km/h
Sensor: Nr:Datum:Temp:Abs-Feuchte:Windchill:Wind:
Aussen-T/F 401 15-03-2019 09:20:00 8 C 7.77 g/m*3 5.3 C 16.1 km/h
402 15-03-2019 09:25:00 8.1 C 7.82 g/m*3 5.64 C 14.5 km/h
403 15-03-2019 09:30:00 8.2 C 7.87 g/m*3 5.99 C 12.9 km/h
404 15-03-2019 09:35:00 8.3 C 7.92 g/m*3 4.84 C 24.1 km/h
405 15-03-2019 09:40:00 8.4 C 7.97 g/m*3 5.8 C 16.1 km/h
406 15-03-2019 09:45:00 8.5 C 8.03 g/m*3 5.73 C 17.7 km/h
407 15-03-2019 09:50:00 8.7 C 8.13 g/m*3 6.6 C 12.9 km/h
408 15-03-2019 09:55:00 8.8 C 8.18 g/m*3 6.11 C 17.7 km/h
409 15-03-2019 10:00:00 8.8 C 8.18 g/m*3 6.72 C 12.9 km/h
410 15-03-2019 10:05:00 8.9 C 8.23 g/m*3 6.85 C 12.9 km/h
411 15-03-2019 10:10:00 9 C 8.29 g/m*3 6.54 C 16.1 km/h
412 15-03-2019 10:15:00 9.1 C 8.34 g/m*3 7.09 C 12.9 km/h
413 15-03-2019 10:20:00 9.2 C 8.39 g/m*3 6.28 C 20.9 km/h
414 15-03-2019 10:25:00 9.3 C 8.45 g/m*3 6.73 C 17.7 km/h
415 15-03-2019 10:30:00 9.5 C 8.56 g/m*3 7.16 C 16.1 km/h
416 15-03-2019 10:35:00 9.6 C 8.61 g/m*3 7.7 C 12.9 km/h
417 15-03-2019 10:40:00 9.7 C 8.67 g/m*3 7.07 C 19.3 km/h
418 15-03-2019 10:45:00 9.7 C 8.67 g/m*3 6.63 C 24.1 km/h
419 15-03-2019 10:50:00 9.8 C 8.72 g/m*3 7.36 C 17.7 km/h
420 15-03-2019 10:55:00 9.9 C 8.78 g/m*3 7.85 C 14.5 km/h
421 15-03-2019 11:00:00 10.1 C 8.89 g/m*3 8.1 C 14.5 km/h
422 15-03-2019 11:05:00 10.2 C 8.85 g/m*3 7.54 C 20.9 km/h
423 15-03-2019 11:10:00 10.4 C 8.96 g/m*3 7.8 C 20.9 km/h
424 15-03-2019 11:15:00 10.7 C 9.13 g/m*3 8.48 C 17.7 km/h
425 15-03-2019 11:20:00 10.8 C 9.09 g/m*3 8.61 C 17.7 km/h
Sensor: Nr:Datum:Temp:Abs-Feuchte:Windchill:Wind:
Aussen-T/F 426 15-03-2019 11:25:00 10.9 C 9.15 g/m*3 8.3 C 22.5 km/h
427 15-03-2019 11:30:00 11.1 C 9.17 g/m*3 11.1 C 19.3 km/h
428 15-03-2019 11:35:00 11.3 C 9.28 g/m*3 11.3 C 19.3 km/h
429 15-03-2019 11:40:00 11.6 C 9.46 g/m*3 11.6 C 16.1 km/h
430 15-03-2019 11:45:00 11.7 C 9.41 g/m*3 11.7 C 22.5 km/h
431 15-03-2019 11:50:00 11.8 C 9.37 g/m*3 11.8 C 17.7 km/h
432 15-03-2019 11:55:00 12 C 9.59 g/m*3 12 C 14.5 km/h
433 15-03-2019 12:00:00 12.1 C 9.54 g/m*3 12.1 C 22.5 km/h
434 15-03-2019 12:05:00 12.2 C 9.6 g/m*3 12.2 C 12.9 km/h
435 15-03-2019 12:10:00 12.2 C 9.6 g/m*3 12.2 C 12.9 km/h
436 15-03-2019 12:15:00 12.2 C 9.5 g/m*3 12.2 C 25.7 km/h
437 15-03-2019 12:20:00 12.2 C 9.6 g/m*3 12.2 C 25.7 km/h
438 15-03-2019 12:25:00 12.2 C 9.6 g/m*3 12.2 C 16.1 km/h
439 15-03-2019 12:30:00 12.3 C 9.66 g/m*3 12.3 C 17.7 km/h
440 15-03-2019 12:35:00 12.4 C 9.72 g/m*3 12.4 C 12.9 km/h
441 15-03-2019 12:40:00 12.6 C 9.85 g/m*3 12.6 C 19.3 km/h
442 15-03-2019 12:45:00 12.7 C 9.8 g/m*3 12.7 C 12.9 km/h
443 15-03-2019 12:50:00 12.7 C 9.68 g/m*3 12.7 C 14.5 km/h
444 15-03-2019 12:55:00 12.8 C 9.74 g/m*3 12.8 C 11.3 km/h
445 15-03-2019 13:00:00 12.8 C 9.74 g/m*3 12.8 C 19.3 km/h
446 15-03-2019 13:05:00 12.8 C 9.74 g/m*3 12.8 C 16.1 km/h
447 15-03-2019 13:10:00 12.9 C 9.69 g/m*3 12.9 C 19.3 km/h
448 15-03-2019 13:15:00 12.9 C 9.58 g/m*3 12.9 C 20.9 km/h
449 15-03-2019 13:20:00 13.1 C 9.81 g/m*3 13.1 C 19.3 km/h
450 15-03-2019 13:25:00 13.1 C 9.7 g/m*3 13.1 C 22.5 km/h
Sensor: Nr:Datum:Temp:Abs-Feuchte:Windchill:Wind:
Aussen-T/F 451 15-03-2019 13:30:00 13.1 C 9.59 g/m*3 13.1 C 16.1 km/h
452 15-03-2019 13:35:00 13.2 C 9.64 g/m*3 13.2 C 19.3 km/h
453 15-03-2019 13:40:00 13.3 C 9.7 g/m*3 13.3 C 20.9 km/h
454 15-03-2019 13:45:00 13.3 C 9.59 g/m*3 13.3 C 17.7 km/h
455 15-03-2019 13:50:00 13.4 C 9.53 g/m*3 13.4 C 22.5 km/h
456 15-03-2019 13:55:00 13.5 C 9.59 g/m*3 13.5 C 12.9 km/h
457 15-03-2019 14:00:00 13.6 C 9.53 g/m*3 13.6 C 25.7 km/h
458 15-03-2019 14:05:00 13.7 C 9.59 g/m*3 13.7 C 25.7 km/h
459 15-03-2019 14:10:00 13.8 C 9.65 g/m*3 13.8 C 24.1 km/h
460 15-03-2019 14:15:00 13.8 C 9.53 g/m*3 13.8 C 22.5 km/h
461 15-03-2019 14:20:00 13.8 C 9.65 g/m*3 13.8 C 19.3 km/h
462 15-03-2019 14:25:00 13.7 C 9.47 g/m*3 13.7 C 24.1 km/h
463 15-03-2019 14:30:00 13.7 C 9.47 g/m*3 13.7 C 17.7 km/h
464 15-03-2019 14:35:00 13.7 C 9.59 g/m*3 13.7 C 22.5 km/h
465 15-03-2019 14:40:00 13.6 C 9.53 g/m*3 13.6 C 19.3 km/h
466 15-03-2019 14:45:00 13.6 C 9.53 g/m*3 13.6 C 22.5 km/h
467 15-03-2019 14:50:00 13.5 C 9.59 g/m*3 13.5 C 14.5 km/h
468 15-03-2019 14:55:00 13.5 C 9.59 g/m*3 13.5 C 19.3 km/h
469 15-03-2019 15:00:00 13.6 C 9.77 g/m*3 13.6 C 16.1 km/h
470 15-03-2019 15:05:00 13.6 C 9.77 g/m*3 13.6 C 12.9 km/h
471 15-03-2019 15:10:00 13.7 C 9.83 g/m*3 13.7 C 16.1 km/h
472 15-03-2019 15:15:00 13.7 C 9.83 g/m*3 13.7 C 9.7 km/h
473 15-03-2019 15:20:00 13.7 C 9.83 g/m*3 13.7 C 20.9 km/h
474 15-03-2019 15:25:00 13.6 C 9.65 g/m*3 13.6 C 22.5 km/h
475 15-03-2019 15:30:00 13.5 C 9.59 g/m*3 13.5 C 20.9 km/h
Sensor: Nr:Datum:Temp:Abs-Feuchte:Windchill:Wind:
Aussen-T/F 476 15-03-2019 15:35:00 13.4 C 9.53 g/m*3 13.4 C 14.5 km/h
477 15-03-2019 15:40:00 13.4 C 9.65 g/m*3 13.4 C 12.9 km/h
478 15-03-2019 15:45:00 13.4 C 9.65 g/m*3 13.4 C 14.5 km/h
479 15-03-2019 15:50:00 13.3 C 9.59 g/m*3 13.3 C 24.1 km/h
480 15-03-2019 15:55:00 13.3 C 9.59 g/m*3 13.3 C 27.4 km/h
481 15-03-2019 16:00:00 13.3 C 9.59 g/m*3 13.3 C 9.7 km/h
482 15-03-2019 16:05:00 13.4 C 9.53 g/m*3 13.4 C 17.7 km/h
483 15-03-2019 16:10:00 13.4 C 9.53 g/m*3 13.4 C 16.1 km/h
484 15-03-2019 16:15:00 13.4 C 9.53 g/m*3 13.4 C 19.3 km/h
485 15-03-2019 16:20:00 13.4 C 9.53 g/m*3 13.4 C 22.5 km/h
486 15-03-2019 16:25:00 13.4 C 9.53 g/m*3 13.4 C 19.3 km/h
487 15-03-2019 16:30:00 13.4 C 9.53 g/m*3 13.4 C 24.1 km/h
488 15-03-2019 16:35:00 13.4 C 9.42 g/m*3 13.4 C 17.7 km/h
489 15-03-2019 16:40:00 13.4 C 9.53 g/m*3 13.4 C 17.7 km/h
490 15-03-2019 16:45:00 13.4 C 9.53 g/m*3 13.4 C 24.1 km/h
491 15-03-2019 16:50:00 13.4 C 9.53 g/m*3 13.4 C 19.3 km/h
492 15-03-2019 16:55:00 13.3 C 9.47 g/m*3 13.3 C 20.9 km/h
493 15-03-2019 17:00:00 13.3 C 9.47 g/m*3 13.3 C 17.7 km/h
494 15-03-2019 17:05:00 13.2 C 9.3 g/m*3 13.2 C 19.3 km/h
495 15-03-2019 17:10:00 13.2 C 9.42 g/m*3 13.2 C 17.7 km/h
496 15-03-2019 17:15:00 13.2 C 9.42 g/m*3 13.2 C 14.5 km/h
497 15-03-2019 17:20:00 13.2 C 9.42 g/m*3 13.2 C 22.5 km/h
498 15-03-2019 17:25:00 13.1 C 9.36 g/m*3 13.1 C 11.3 km/h
499 15-03-2019 17:30:00 13.1 C 9.47 g/m*3 13.1 C 9.7 km/h
500 15-03-2019 17:35:00 12.9 C 9.35 g/m*3 12.9 C 11.3 km/h
Sensor: Nr:Datum:Temp:Abs-Feuchte:Windchill:Wind:
Aussen-T/F 501 15-03-2019 17:40:00 12.9 C 9.47 g/m*3 12.9 C 17.7 km/h
502 15-03-2019 17:45:00 12.8 C 9.41 g/m*3 12.8 C 16.1 km/h
503 15-03-2019 17:50:00 12.8 C 9.41 g/m*3 12.8 C 16.1 km/h
504 15-03-2019 17:55:00 12.7 C 9.35 g/m*3 12.7 C 20.9 km/h
505 15-03-2019 18:00:00 12.7 C 9.35 g/m*3 12.7 C 24.1 km/h
506 15-03-2019 18:05:00 12.7 C 9.46 g/m*3 12.7 C 16.1 km/h
507 15-03-2019 18:10:00 12.7 C 9.46 g/m*3 12.7 C 14.5 km/h
508 15-03-2019 18:15:00 12.7 C 9.46 g/m*3 12.7 C 22.5 km/h
509 15-03-2019 18:20:00 12.7 C 9.46 g/m*3 12.7 C 27.4 km/h
510 15-03-2019 18:25:00 12.7 C 9.35 g/m*3 12.7 C 19.3 km/h
511 15-03-2019 18:30:00 12.7 C 9.35 g/m*3 12.7 C 14.5 km/h
512 15-03-2019 18:35:00 12.7 C 9.35 g/m*3 12.7 C 20.9 km/h
513 15-03-2019 18:40:00 12.7 C 9.35 g/m*3 12.7 C 19.3 km/h
514 15-03-2019 18:45:00 12.7 C 9.35 g/m*3 12.7 C 22.5 km/h
515 15-03-2019 18:50:00 12.7 C 9.35 g/m*3 12.7 C 19.3 km/h
516 15-03-2019 18:55:00 12.8 C 9.3 g/m*3 12.8 C 20.9 km/h
517 15-03-2019 19:00:00 12.8 C 9.3 g/m*3 12.8 C 16.1 km/h
518 15-03-2019 19:05:00 12.8 C 9.3 g/m*3 12.8 C 11.3 km/h
519 15-03-2019 19:10:00 12.8 C 9.41 g/m*3 12.8 C 11.3 km/h
520 15-03-2019 19:15:00 12.7 C 9.35 g/m*3 12.7 C 19.3 km/h
521 15-03-2019 19:20:00 12.7 C 9.35 g/m*3 12.7 C 14.5 km/h
522 15-03-2019 19:25:00 12.6 C 9.4 g/m*3 12.6 C 9.7 km/h
523 15-03-2019 19:30:00 12.6 C 9.4 g/m*3 12.6 C 19.3 km/h
524 15-03-2019 19:35:00 12.6 C 9.4 g/m*3 12.6 C 16.1 km/h
525 15-03-2019 19:40:00 12.6 C 9.4 g/m*3 12.6 C 16.1 km/h
Sensor: Nr:Datum:Temp:Abs-Feuchte:Windchill:Wind:
Aussen-T/F 526 15-03-2019 19:45:00 12.6 C 9.4 g/m*3 12.6 C 12.9 km/h
527 15-03-2019 19:50:00 12.5 C 9.46 g/m*3 12.5 C 11.3 km/h
528 15-03-2019 19:55:00 12.4 C 9.4 g/m*3 12.4 C 17.7 km/h
529 15-03-2019 20:00:00 12.4 C 9.4 g/m*3 12.4 C 25.7 km/h
530 15-03-2019 20:05:00 12.4 C 9.4 g/m*3 12.4 C 11.3 km/h
531 15-03-2019 20:10:00 12.4 C 9.51 g/m*3 12.4 C 11.3 km/h
532 15-03-2019 20:15:00 12.3 C 9.56 g/m*3 12.3 C 14.5 km/h
533 15-03-2019 20:20:00 12.2 C 9.5 g/m*3 12.2 C 20.9 km/h
534 15-03-2019 20:25:00 12.1 C 9.44 g/m*3 12.1 C 17.7 km/h
535 15-03-2019 20:30:00 12 C 9.48 g/m*3 12 C 12.9 km/h
536 15-03-2019 20:35:00 11.9 C 9.43 g/m*3 11.9 C 12.9 km/h
537 15-03-2019 20:40:00 11.9 C 9.43 g/m*3 11.9 C 9.7 km/h
538 15-03-2019 20:45:00 11.9 C 9.43 g/m*3 11.9 C 12.9 km/h
539 15-03-2019 20:50:00 11.9 C 9.43 g/m*3 11.9 C 12.9 km/h
540 15-03-2019 20:55:00 11.9 C 9.43 g/m*3 11.9 C 8.1 km/h
541 15-03-2019 21:00:00 12 C 9.38 g/m*3 12 C 24.1 km/h
542 15-03-2019 21:05:00 12.1 C 9.44 g/m*3 12.1 C 11.3 km/h
543 15-03-2019 21:10:00 12.2 C 9.39 g/m*3 12.2 C 12.9 km/h
544 15-03-2019 21:15:00 12.2 C 9.39 g/m*3 12.2 C 9.7 km/h
545 15-03-2019 21:20:00 12.2 C 9.39 g/m*3 12.2 C 11.3 km/h
546 15-03-2019 21:25:00 12.2 C 9.39 g/m*3 12.2 C 16.1 km/h
547 15-03-2019 21:30:00 12.3 C 9.34 g/m*3 12.3 C 14.5 km/h
548 15-03-2019 21:35:00 12.3 C 9.34 g/m*3 12.3 C 11.3 km/h
549 15-03-2019 21:40:00 12.3 C 9.34 g/m*3 12.3 C 14.5 km/h
550 15-03-2019 21:45:00 12.4 C 9.4 g/m*3 12.4 C 11.3 km/h
Sensor: Nr:Datum:Temp:Abs-Feuchte:Windchill:Wind:
Aussen-T/F 551 15-03-2019 21:50:00 12.4 C 9.4 g/m*3 12.4 C 19.3 km/h
552 15-03-2019 21:55:00 12.4 C 9.4 g/m*3 12.4 C 14.5 km/h
553 15-03-2019 22:00:00 12.4 C 9.4 g/m*3 12.4 C 12.9 km/h
554 15-03-2019 22:05:00 12.4 C 9.29 g/m*3 12.4 C 11.3 km/h
555 15-03-2019 22:10:00 12.4 C 9.4 g/m*3 12.4 C 17.7 km/h
556 15-03-2019 22:15:00 12.4 C 9.4 g/m*3 12.4 C 12.9 km/h
557 15-03-2019 22:20:00 12.3 C 9.34 g/m*3 12.3 C 19.3 km/h
558 15-03-2019 22:25:00 12.4 C 9.29 g/m*3 12.4 C 12.9 km/h
559 15-03-2019 22:30:00 12.4 C 9.29 g/m*3 12.4 C 11.3 km/h
560 15-03-2019 22:35:00 12.3 C 9.23 g/m*3 12.3 C 6.4 km/h
561 15-03-2019 22:40:00 12.3 C 9.23 g/m*3 12.3 C 16.1 km/h
562 15-03-2019 22:45:00 12.4 C 9.18 g/m*3 12.4 C 14.5 km/h
563 15-03-2019 22:50:00 12.6 C 9.29 g/m*3 12.6 C 11.3 km/h
564 15-03-2019 22:55:00 12.5 C 9.35 g/m*3 12.5 C 4.8 km/h
565 15-03-2019 23:00:00 12.3 C 9.23 g/m*3 12.3 C 1.6 km/h
566 15-03-2019 23:05:00 12.1 C 9.22 g/m*3 12.1 C 4.8 km/h
567 15-03-2019 23:10:00 11.9 C 9.21 g/m*3 11.9 C 6.4 km/h
568 15-03-2019 23:15:00 11.8 C 9.16 g/m*3 11.8 C 14.5 km/h
569 15-03-2019 23:20:00 11.9 C 9.21 g/m*3 11.9 C 11.3 km/h
570 15-03-2019 23:25:00 11.9 C 9.32 g/m*3 11.9 C 3.2 km/h
571 15-03-2019 23:30:00 11.8 C 9.26 g/m*3 11.8 C 11.3 km/h
572 15-03-2019 23:35:00 11.8 C 9.37 g/m*3 11.8 C 9.7 km/h
573 15-03-2019 23:40:00 11.8 C 9.37 g/m*3 11.8 C 8.1 km/h
574 15-03-2019 23:45:00 11.7 C 9.31 g/m*3 11.7 C 6.4 km/h
575 15-03-2019 23:50:00 11.7 C 9.31 g/m*3 11.7 C 6.4 km/h
Sensor: Nr:Datum:Temp:Abs-Feuchte:Windchill:Wind:
Aussen-T/F 576 15-03-2019 23:55:00 11.6 C 9.35 g/m*3 11.6 C 9.7 km/h
577 16-03-2019 00:00:00 11.6 C 9.35 g/m*3 11.6 C 11.3 km/h
578 16-03-2019 00:05:00 11.6 C 9.35 g/m*3 11.6 C 19.3 km/h
579 16-03-2019 00:10:00 11.7 C 9.31 g/m*3 11.7 C 16.1 km/h
580 16-03-2019 00:15:00 11.7 C 9.31 g/m*3 11.7 C 12.9 km/h
581 16-03-2019 00:20:00 11.7 C 9.31 g/m*3 11.7 C 9.7 km/h
582 16-03-2019 00:25:00 11.7 C 9.2 g/m*3 11.7 C 11.3 km/h
583 16-03-2019 00:30:00 11.7 C 9.2 g/m*3 11.7 C 14.5 km/h
584 16-03-2019 00:35:00 11.8 C 9.26 g/m*3 11.8 C 14.5 km/h
585 16-03-2019 00:40:00 11.8 C 9.26 g/m*3 11.8 C 3.2 km/h
586 16-03-2019 00:45:00 11.7 C 9.1 g/m*3 11.7 C 17.7 km/h
587 16-03-2019 00:50:00 11.1 C 8.76 g/m*3 11.1 C 14.5 km/h
588 16-03-2019 00:55:00 10.8 C 8.8 g/m*3 8.96 C 14.5 km/h
589 16-03-2019 01:00:00 10.5 C 8.73 g/m*3 9.57 C 8.1 km/h
590 16-03-2019 01:05:00 10.3 C 8.71 g/m*3 9.04 C 9.7 km/h
591 16-03-2019 01:10:00 10.2 C 8.66 g/m*3 8.03 C 16.1 km/h
592 16-03-2019 01:15:00 10.1 C 8.7 g/m*3 8.54 C 11.3 km/h
593 16-03-2019 01:20:00 10.1 C 8.7 g/m*3 8.8 C 9.7 km/h
594 16-03-2019 01:25:00 10 C 8.64 g/m*3 8.19 C 12.9 km/h
595 16-03-2019 01:30:00 9.8 C 8.63 g/m*3 7.19 C 19.3 km/h
596 16-03-2019 01:35:00 9.6 C 8.43 g/m*3 6.79 C 20.9 km/h
597 16-03-2019 01:40:00 9.3 C 8.27 g/m*3 6.92 C 16.1 km/h
598 16-03-2019 01:45:00 9.3 C 8.27 g/m*3 7.33 C 12.9 km/h
599 16-03-2019 01:50:00 9.2 C 8.22 g/m*3 6.99 C 14.5 km/h
600 16-03-2019 01:55:00 9.1 C 8.16 g/m*3 7.33 C 11.3 km/h
Sensor: Nr:Datum:Temp:Abs-Feuchte:Windchill:Wind:
Aussen-T/F 601 16-03-2019 02:00:00 9.1 C 8.25 g/m*3 7.09 C 12.9 km/h
602 16-03-2019 02:05:00 9.1 C 8.25 g/m*3 6.87 C 14.5 km/h
603 16-03-2019 02:10:00 9.1 C 8.16 g/m*3 6.67 C 16.1 km/h
604 16-03-2019 02:15:00 9.1 C 8.16 g/m*3 7.09 C 12.9 km/h
605 16-03-2019 02:20:00 9 C 8.11 g/m*3 6.97 C 12.9 km/h
606 16-03-2019 02:25:00 9 C 8.11 g/m*3 7.81 C 8.1 km/h
607 16-03-2019 02:30:00 8.9 C 8.06 g/m*3 8.1 C 6.4 km/h
608 16-03-2019 02:35:00 8.9 C 8.06 g/m*3 7.69 C 8.1 km/h
609 16-03-2019 02:40:00 8.8 C 8.01 g/m*3 6.72 C 12.9 km/h
610 16-03-2019 02:45:00 8.8 C 8.01 g/m*3 7.58 C 8.1 km/h
611 16-03-2019 02:50:00 8.7 C 7.96 g/m*3 7.46 C 8.1 km/h
612 16-03-2019 02:55:00 8.7 C 7.96 g/m*3 8.7 C 3.2 km/h
613 16-03-2019 03:00:00 8.7 C 8.04 g/m*3 8.7 C 3.2 km/h
614 16-03-2019 03:05:00 8.6 C 7.99 g/m*3 8.6 C 3.2 km/h
615 16-03-2019 03:10:00 8.5 C 7.94 g/m*3 8.5 C 1.6 km/h
616 16-03-2019 03:15:00 8.5 C 7.94 g/m*3 8.5 C 3.2 km/h
617 16-03-2019 03:20:00 8.4 C 7.97 g/m*3 8.4 C 4.8 km/h
618 16-03-2019 03:25:00 8.4 C 7.97 g/m*3 8.4 C 0 km/h
619 16-03-2019 03:30:00 8.4 C 7.97 g/m*3 8.4 C 1.6 km/h
620 16-03-2019 03:35:00 8.3 C 7.92 g/m*3 8.3 C 1.6 km/h
621 16-03-2019 03:40:00 8.3 C 7.92 g/m*3 8.3 C 0 km/h
622 16-03-2019 03:45:00 8.3 C 7.92 g/m*3 8.3 C 1.6 km/h
623 16-03-2019 03:50:00 8.3 C 7.92 g/m*3 8.3 C 1.6 km/h
624 16-03-2019 03:55:00 8.3 C 8.01 g/m*3 8.3 C 0 km/h
625 16-03-2019 04:00:00 8.3 C 8.01 g/m*3 8.3 C 0 km/h
Sensor: Nr:Datum:Temp:Abs-Feuchte:Windchill:Wind:
Aussen-T/F 626 16-03-2019 04:05:00 8.3 C 8.01 g/m*3 8.3 C 0 km/h
627 16-03-2019 04:10:00 8.3 C 8.01 g/m*3 8.3 C 0 km/h
628 16-03-2019 04:15:00 8.3 C 8.01 g/m*3 8.3 C 0 km/h
629 16-03-2019 04:20:00 8.3 C 8.01 g/m*3 8.3 C 0 km/h
630 16-03-2019 04:25:00 8.3 C 8.01 g/m*3 8.3 C 0 km/h
631 16-03-2019 04:30:00 8.3 C 8.01 g/m*3 8.3 C 0 km/h
632 16-03-2019 04:35:00 8.3 C 8.01 g/m*3 8.3 C 0 km/h
633 16-03-2019 04:40:00 8.3 C 8.01 g/m*3 8.3 C 0 km/h
634 16-03-2019 04:45:00 8.3 C 8.01 g/m*3 8.3 C 0 km/h
635 16-03-2019 04:50:00 8.3 C 8.01 g/m*3 8.3 C 0 km/h
636 16-03-2019 04:55:00 8.3 C 8.01 g/m*3 8.3 C 0 km/h
637 16-03-2019 05:00:00 8.3 C 8.01 g/m*3 8.3 C 0 km/h
638 16-03-2019 05:05:00 8.3 C 8.01 g/m*3 8.3 C 0 km/h
639 16-03-2019 05:10:00 8.3 C 8.01 g/m*3 8.3 C 0 km/h
640 16-03-2019 05:15:00 8.3 C 8.01 g/m*3 8.3 C 0 km/h
641 16-03-2019 05:20:00 8.3 C 8.01 g/m*3 8.3 C 0 km/h
642 16-03-2019 05:25:00 8.3 C 8.01 g/m*3 8.3 C 0 km/h
643 16-03-2019 05:30:00 8.3 C 8.01 g/m*3 8.3 C 0 km/h
644 16-03-2019 05:35:00 8.3 C 8.01 g/m*3 8.3 C 0 km/h
645 16-03-2019 05:40:00 8.3 C 8.01 g/m*3 8.3 C 0 km/h
646 16-03-2019 05:45:00 8.3 C 8.01 g/m*3 8.3 C 0 km/h
647 16-03-2019 05:50:00 8.3 C 8.01 g/m*3 8.3 C 0 km/h
648 16-03-2019 05:55:00 8.3 C 8.09 g/m*3 8.3 C 0 km/h
649 16-03-2019 06:00:00 8.3 C 8.09 g/m*3 8.3 C 0 km/h
650 16-03-2019 06:05:00 8.3 C 8.09 g/m*3 8.3 C 0 km/h
Sensor: Nr:Datum:Temp:Abs-Feuchte:Windchill:Wind:
Aussen-T/F 651 16-03-2019 06:10:00 8.3 C 8.09 g/m*3 8.3 C 0 km/h
652 16-03-2019 06:15:00 8.3 C 8.09 g/m*3 8.3 C 0 km/h
653 16-03-2019 06:20:00 8.3 C 8.09 g/m*3 8.3 C 0 km/h
654 16-03-2019 06:25:00 8.4 C 8.14 g/m*3 7.52 C 6.4 km/h
655 16-03-2019 06:30:00 8.7 C 8.3 g/m*3 8.7 C 3.2 km/h
656 16-03-2019 06:35:00 8.8 C 8.36 g/m*3 8.8 C 4.8 km/h
657 16-03-2019 06:40:00 9.1 C 8.61 g/m*3 7.33 C 11.3 km/h
658 16-03-2019 06:45:00 9.3 C 8.72 g/m*3 7.85 C 9.7 km/h
659 16-03-2019 06:50:00 9.4 C 8.77 g/m*3 7.7 C 11.3 km/h
660 16-03-2019 06:55:00 9.6 C 8.89 g/m*3 8.21 C 9.7 km/h
661 16-03-2019 07:00:00 9.7 C 8.85 g/m*3 7.41 C 16.1 km/h
662 16-03-2019 07:05:00 9.7 C 8.85 g/m*3 7.82 C 12.9 km/h
663 16-03-2019 07:10:00 9.7 C 8.85 g/m*3 7.07 C 19.3 km/h
664 16-03-2019 07:15:00 9.8 C 8.91 g/m*3 7.19 C 19.3 km/h
665 16-03-2019 07:20:00 9.8 C 8.91 g/m*3 7.94 C 12.9 km/h
666 16-03-2019 07:25:00 9.8 C 8.81 g/m*3 7.54 C 16.1 km/h
667 16-03-2019 07:30:00 9.9 C 8.87 g/m*3 7.66 C 16.1 km/h
668 16-03-2019 07:35:00 9.9 C 8.87 g/m*3 8.06 C 12.9 km/h
669 16-03-2019 07:40:00 10 C 8.83 g/m*3 7.78 C 16.1 km/h
670 16-03-2019 07:45:00 10.1 C 8.89 g/m*3 8.1 C 14.5 km/h
671 16-03-2019 07:50:00 10.1 C 8.89 g/m*3 7.42 C 20.9 km/h
672 16-03-2019 07:55:00 10.1 C 8.89 g/m*3 8.1 C 14.5 km/h
673 16-03-2019 08:00:00 10.2 C 8.95 g/m*3 8.43 C 12.9 km/h
674 16-03-2019 08:05:00 10.2 C 8.95 g/m*3 8.43 C 12.9 km/h
675 16-03-2019 08:10:00 10.2 C 8.85 g/m*3 8.66 C 11.3 km/h
Sensor: Nr:Datum:Temp:Abs-Feuchte:Windchill:Wind:
Aussen-T/F 676 16-03-2019 08:15:00 10.3 C 8.91 g/m*3 7.98 C 17.7 km/h
677 16-03-2019 08:20:00 10.3 C 8.91 g/m*3 9.04 C 9.7 km/h
678 16-03-2019 08:25:00 10.3 C 8.91 g/m*3 9.04 C 9.7 km/h
679 16-03-2019 08:30:00 10.4 C 8.96 g/m*3 9.83 C 6.4 km/h
680 16-03-2019 08:35:00 10.4 C 8.96 g/m*3 9.83 C 6.4 km/h
681 16-03-2019 08:40:00 10.5 C 9.02 g/m*3 9.28 C 9.7 km/h
682 16-03-2019 08:45:00 10.5 C 9.02 g/m*3 8.4 C 16.1 km/h
683 16-03-2019 08:50:00 10.6 C 9.08 g/m*3 8.92 C 12.9 km/h
684 16-03-2019 08:55:00 10.6 C 9.08 g/m*3 9.14 C 11.3 km/h
685 16-03-2019 09:00:00 10.7 C 9.13 g/m*3 8.48 C 17.7 km/h
686 16-03-2019 09:05:00 10.7 C 9.04 g/m*3 8.48 C 17.7 km/h
687 16-03-2019 09:10:00 10.7 C 9.04 g/m*3 8.65 C 16.1 km/h
688 16-03-2019 09:15:00 10.7 C 9.04 g/m*3 8.32 C 19.3 km/h
689 16-03-2019 09:20:00 10.7 C 9.04 g/m*3 10.18 C 6.4 km/h
690 16-03-2019 09:25:00 10.7 C 9.04 g/m*3 9.04 C 12.9 km/h
691 16-03-2019 09:30:00 10.7 C 9.04 g/m*3 8.84 C 14.5 km/h
692 16-03-2019 09:35:00 10.7 C 9.04 g/m*3 9.52 C 9.7 km/h
693 16-03-2019 09:40:00 10.7 C 9.04 g/m*3 9.26 C 11.3 km/h
694 16-03-2019 09:45:00 10.7 C 8.94 g/m*3 8.84 C 14.5 km/h
695 16-03-2019 09:50:00 10.8 C 8.99 g/m*3 8.61 C 17.7 km/h
696 16-03-2019 09:55:00 10.8 C 8.9 g/m*3 8.96 C 14.5 km/h
697 16-03-2019 10:00:00 10.8 C 8.9 g/m*3 9.16 C 12.9 km/h
698 16-03-2019 10:05:00 10.9 C 8.95 g/m*3 8.73 C 17.7 km/h
699 16-03-2019 10:10:00 10.9 C 8.95 g/m*3 9.51 C 11.3 km/h
700 16-03-2019 10:15:00 10.9 C 8.95 g/m*3 8.58 C 19.3 km/h
Sensor: Nr:Datum:Temp:Abs-Feuchte:Windchill:Wind:
Aussen-T/F 701 16-03-2019 10:20:00 10.9 C 8.95 g/m*3 9.28 C 12.9 km/h
702 16-03-2019 10:25:00 10.8 C 8.9 g/m*3 8.96 C 14.5 km/h
703 16-03-2019 10:30:00 10.9 C 8.95 g/m*3 9.51 C 11.3 km/h
704 16-03-2019 10:35:00 10.9 C 8.85 g/m*3 8.9 C 16.1 km/h
705 16-03-2019 10:40:00 10.9 C 8.95 g/m*3 8.73 C 17.7 km/h
706 16-03-2019 10:45:00 10.8 C 8.9 g/m*3 8.96 C 14.5 km/h
707 16-03-2019 10:50:00 10.7 C 8.84 g/m*3 9.26 C 11.3 km/h
708 16-03-2019 10:55:00 10.7 C 8.94 g/m*3 9.26 C 11.3 km/h
709 16-03-2019 11:00:00 10.7 C 8.94 g/m*3 9.81 C 8.1 km/h
710 16-03-2019 11:05:00 10.7 C 8.94 g/m*3 8.32 C 19.3 km/h
711 16-03-2019 11:10:00 10.7 C 8.94 g/m*3 8.84 C 14.5 km/h
712 16-03-2019 11:15:00 10.7 C 8.94 g/m*3 8.32 C 19.3 km/h
713 16-03-2019 11:20:00 10.7 C 8.84 g/m*3 8.84 C 14.5 km/h
714 16-03-2019 11:25:00 10.7 C 8.84 g/m*3 9.04 C 12.9 km/h
715 16-03-2019 11:30:00 10.8 C 8.8 g/m*3 8.17 C 22.5 km/h
716 16-03-2019 11:35:00 10.8 C 8.7 g/m*3 8.61 C 17.7 km/h
717 16-03-2019 11:40:00 10.9 C 8.75 g/m*3 8.17 C 24.1 km/h
718 16-03-2019 11:45:00 11 C 8.81 g/m*3 9.21 C 14.5 km/h
719 16-03-2019 11:50:00 11.1 C 8.76 g/m*3 11.1 C 19.3 km/h
720 16-03-2019 11:55:00 11.1 C 8.76 g/m*3 11.1 C 19.3 km/h
721 16-03-2019 12:00:00 11.1 C 8.76 g/m*3 11.1 C 16.1 km/h
722 16-03-2019 12:05:00 11.2 C 8.72 g/m*3 11.2 C 19.3 km/h
723 16-03-2019 12:10:00 11.2 C 8.72 g/m*3 11.2 C 29 km/h
724 16-03-2019 12:15:00 11.2 C 8.62 g/m*3 11.2 C 11.3 km/h
725 16-03-2019 12:20:00 11.3 C 8.67 g/m*3 11.3 C 22.5 km/h
Sensor: Nr:Datum:Temp:Abs-Feuchte:Windchill:Wind:
Aussen-T/F 726 16-03-2019 12:25:00 11.4 C 8.62 g/m*3 11.4 C 27.4 km/h
727 16-03-2019 12:30:00 11.6 C 8.73 g/m*3 11.6 C 19.3 km/h
728 16-03-2019 12:35:00 11.7 C 8.68 g/m*3 11.7 C 20.9 km/h
729 16-03-2019 12:40:00 11.8 C 8.63 g/m*3 11.8 C 14.5 km/h
730 16-03-2019 12:45:00 11.8 C 8.63 g/m*3 11.8 C 12.9 km/h
731 16-03-2019 12:50:00 11.7 C 8.58 g/m*3 11.7 C 16.1 km/h
732 16-03-2019 12:55:00 11.6 C 8.52 g/m*3 11.6 C 20.9 km/h
733 16-03-2019 13:00:00 11.5 C 8.37 g/m*3 11.5 C 19.3 km/h
734 16-03-2019 13:05:00 11.5 C 8.37 g/m*3 11.5 C 17.7 km/h
735 16-03-2019 13:10:00 11.7 C 8.37 g/m*3 11.7 C 20.9 km/h
736 16-03-2019 13:15:00 11.8 C 8.42 g/m*3 11.8 C 17.7 km/h
737 16-03-2019 13:20:00 11.8 C 8.31 g/m*3 11.8 C 20.9 km/h
738 16-03-2019 13:25:00 11.8 C 8.31 g/m*3 11.8 C 24.1 km/h
739 16-03-2019 13:30:00 11.9 C 8.37 g/m*3 11.9 C 16.1 km/h
740 16-03-2019 13:35:00 11.9 C 8.37 g/m*3 11.9 C 11.3 km/h
741 16-03-2019 13:40:00 11.8 C 8.42 g/m*3 11.8 C 22.5 km/h
742 16-03-2019 13:45:00 11.8 C 8.42 g/m*3 11.8 C 12.9 km/h
743 16-03-2019 13:50:00 11.8 C 8.53 g/m*3 11.8 C 16.1 km/h
744 16-03-2019 13:55:00 11.8 C 8.53 g/m*3 11.8 C 12.9 km/h
745 16-03-2019 14:00:00 11.7 C 8.47 g/m*3 11.7 C 14.5 km/h
746 16-03-2019 14:05:00 11.6 C 8.32 g/m*3 11.6 C 19.3 km/h
747 16-03-2019 14:10:00 11.4 C 8.31 g/m*3 11.4 C 14.5 km/h
748 16-03-2019 14:15:00 11.3 C 8.26 g/m*3 11.3 C 24.1 km/h
749 16-03-2019 14:20:00 11.1 C 8.16 g/m*3 11.1 C 17.7 km/h
750 16-03-2019 14:25:00 11.1 C 8.26 g/m*3 11.1 C 14.5 km/h
Sensor: Nr:Datum:Temp:Abs-Feuchte:Windchill:Wind:
Aussen-T/F 751 16-03-2019 14:30:00 10.9 C 8.16 g/m*3 8.9 C 16.1 km/h
752 16-03-2019 14:35:00 10.9 C 8.06 g/m*3 8.43 C 20.9 km/h
753 16-03-2019 14:40:00 10.9 C 8.06 g/m*3 8.43 C 20.9 km/h
754 16-03-2019 14:45:00 10.9 C 7.96 g/m*3 8.73 C 17.7 km/h
755 16-03-2019 14:50:00 10.9 C 7.96 g/m*3 8.43 C 20.9 km/h
756 16-03-2019 14:55:00 10.8 C 7.91 g/m*3 7.58 C 30.6 km/h
757 16-03-2019 15:00:00 10.8 C 7.91 g/m*3 8.45 C 19.3 km/h
758 16-03-2019 15:05:00 10.8 C 7.81 g/m*3 8.45 C 19.3 km/h
759 16-03-2019 15:10:00 10.8 C 7.91 g/m*3 9.64 C 9.7 km/h
760 16-03-2019 15:15:00 10.8 C 7.91 g/m*3 9.38 C 11.3 km/h
761 16-03-2019 15:20:00 10.9 C 7.96 g/m*3 9.76 C 9.7 km/h
762 16-03-2019 15:25:00 10.9 C 7.86 g/m*3 8.73 C 17.7 km/h
763 16-03-2019 15:30:00 10.9 C 7.76 g/m*3 9.28 C 12.9 km/h
764 16-03-2019 15:35:00 11 C 7.81 g/m*3 9.21 C 14.5 km/h
765 16-03-2019 15:40:00 11.1 C 7.86 g/m*3 11.1 C 12.9 km/h
766 16-03-2019 15:45:00 11.1 C 7.76 g/m*3 11.1 C 11.3 km/h
767 16-03-2019 15:50:00 11.1 C 7.76 g/m*3 11.1 C 4.8 km/h
768 16-03-2019 15:55:00 11.1 C 7.76 g/m*3 11.1 C 12.9 km/h
769 16-03-2019 16:00:00 11.1 C 7.86 g/m*3 11.1 C 16.1 km/h
770 16-03-2019 16:05:00 11 C 7.81 g/m*3 9.63 C 11.3 km/h
771 16-03-2019 16:10:00 10.9 C 7.76 g/m*3 10.9 C 4.8 km/h
772 16-03-2019 16:15:00 11 C 7.81 g/m*3 10.16 C 8.1 km/h
773 16-03-2019 16:20:00 11.1 C 7.86 g/m*3 11.1 C 14.5 km/h
774 16-03-2019 16:25:00 11.1 C 7.76 g/m*3 11.1 C 14.5 km/h
775 16-03-2019 16:30:00 11 C 7.81 g/m*3 9.4 C 12.9 km/h
Sensor: Nr:Datum:Temp:Abs-Feuchte:Windchill:Wind:
Aussen-T/F 776 16-03-2019 16:35:00 11 C 7.71 g/m*3 9.21 C 14.5 km/h
777 16-03-2019 16:40:00 11 C 7.71 g/m*3 9.63 C 11.3 km/h
778 16-03-2019 16:45:00 10.9 C 7.66 g/m*3 9.28 C 12.9 km/h
779 16-03-2019 16:50:00 10.9 C 7.66 g/m*3 8.58 C 19.3 km/h
780 16-03-2019 16:55:00 10.9 C 7.56 g/m*3 9.51 C 11.3 km/h
781 16-03-2019 17:00:00 10.9 C 7.66 g/m*3 9.76 C 9.7 km/h
782 16-03-2019 17:05:00 10.9 C 7.66 g/m*3 8.9 C 16.1 km/h
783 16-03-2019 17:10:00 10.9 C 7.56 g/m*3 9.08 C 14.5 km/h
784 16-03-2019 17:15:00 10.9 C 7.56 g/m*3 9.51 C 11.3 km/h
785 16-03-2019 17:20:00 10.9 C 7.56 g/m*3 9.51 C 11.3 km/h
786 16-03-2019 17:25:00 10.9 C 7.56 g/m*3 9.76 C 9.7 km/h
787 16-03-2019 17:30:00 10.9 C 7.56 g/m*3 9.28 C 12.9 km/h
788 16-03-2019 17:35:00 10.9 C 7.56 g/m*3 9.28 C 12.9 km/h
789 16-03-2019 17:40:00 10.9 C 7.66 g/m*3 8.9 C 16.1 km/h
790 16-03-2019 17:45:00 10.9 C 7.56 g/m*3 9.08 C 14.5 km/h
791 16-03-2019 17:50:00 10.9 C 7.56 g/m*3 9.28 C 12.9 km/h
792 16-03-2019 17:55:00 10.9 C 7.56 g/m*3 9.28 C 12.9 km/h
793 16-03-2019 18:00:00 10.9 C 7.56 g/m*3 10.41 C 6.4 km/h
794 16-03-2019 18:05:00 10.8 C 7.51 g/m*3 9.38 C 11.3 km/h
795 16-03-2019 18:10:00 10.8 C 7.61 g/m*3 8.78 C 16.1 km/h
796 16-03-2019 18:15:00 10.8 C 7.61 g/m*3 9.38 C 11.3 km/h
797 16-03-2019 18:20:00 10.7 C 7.46 g/m*3 9.04 C 12.9 km/h
798 16-03-2019 18:25:00 10.7 C 7.46 g/m*3 8.84 C 14.5 km/h
799 16-03-2019 18:30:00 10.7 C 7.56 g/m*3 9.04 C 12.9 km/h
800 16-03-2019 18:35:00 10.7 C 7.56 g/m*3 8.84 C 14.5 km/h
Sensor: Nr:Datum:Temp:Abs-Feuchte:Windchill:Wind:
Aussen-T/F 801 16-03-2019 18:40:00 10.6 C 7.52 g/m*3 9.4 C 9.7 km/h
802 16-03-2019 18:45:00 10.6 C 7.42 g/m*3 8.92 C 12.9 km/h
803 16-03-2019 18:50:00 10.5 C 7.37 g/m*3 8.59 C 14.5 km/h
804 16-03-2019 18:55:00 10.5 C 7.37 g/m*3 9.28 C 9.7 km/h
805 16-03-2019 19:00:00 10.5 C 7.37 g/m*3 8.07 C 19.3 km/h
806 16-03-2019 19:05:00 10.5 C 7.37 g/m*3 8.4 C 16.1 km/h
807 16-03-2019 19:10:00 10.5 C 7.37 g/m*3 8.07 C 19.3 km/h
808 16-03-2019 19:15:00 10.5 C 7.37 g/m*3 8.59 C 14.5 km/h
809 16-03-2019 19:20:00 10.4 C 7.32 g/m*3 8.47 C 14.5 km/h
810 16-03-2019 19:25:00 10.4 C 7.32 g/m*3 8.28 C 16.1 km/h
811 16-03-2019 19:30:00 10.4 C 7.32 g/m*3 8.28 C 16.1 km/h
812 16-03-2019 19:35:00 10.4 C 7.32 g/m*3 7.95 C 19.3 km/h
813 16-03-2019 19:40:00 10.4 C 7.32 g/m*3 9.46 C 8.1 km/h
814 16-03-2019 19:45:00 10.4 C 7.32 g/m*3 9.46 C 8.1 km/h
815 16-03-2019 19:50:00 10.4 C 7.32 g/m*3 8.67 C 12.9 km/h
816 16-03-2019 19:55:00 10.4 C 7.32 g/m*3 9.46 C 8.1 km/h
817 16-03-2019 20:00:00 10.4 C 7.32 g/m*3 8.9 C 11.3 km/h
818 16-03-2019 20:05:00 10.4 C 7.32 g/m*3 10.4 C 4.8 km/h
819 16-03-2019 20:10:00 10.4 C 7.32 g/m*3 10.4 C 4.8 km/h
820 16-03-2019 20:15:00 10.3 C 7.28 g/m*3 9.72 C 6.4 km/h
821 16-03-2019 20:20:00 10.3 C 7.18 g/m*3 8.34 C 14.5 km/h
822 16-03-2019 20:25:00 10.4 C 7.23 g/m*3 8.47 C 14.5 km/h
823 16-03-2019 20:30:00 10.4 C 7.23 g/m*3 7.53 C 24.1 km/h
824 16-03-2019 20:35:00 10.3 C 7.18 g/m*3 7.15 C 27.4 km/h
825 16-03-2019 20:40:00 10.3 C 7.18 g/m*3 8.34 C 14.5 km/h
Sensor: Nr:Datum:Temp:Abs-Feuchte:Windchill:Wind:
Aussen-T/F 826 16-03-2019 20:45:00 10.3 C 7.18 g/m*3 9.04 C 9.7 km/h
827 16-03-2019 20:50:00 10.2 C 7.23 g/m*3 8.43 C 12.9 km/h
828 16-03-2019 20:55:00 10.1 C 7.19 g/m*3 8.8 C 9.7 km/h
829 16-03-2019 21:00:00 10.1 C 7.28 g/m*3 8.8 C 9.7 km/h
830 16-03-2019 21:05:00 9.9 C 7.28 g/m*3 8.3 C 11.3 km/h
831 16-03-2019 21:10:00 9.9 C 7.28 g/m*3 7.85 C 14.5 km/h
832 16-03-2019 21:15:00 10.1 C 7.38 g/m*3 7.14 C 24.1 km/h
833 16-03-2019 21:20:00 10.1 C 7.38 g/m*3 8.1 C 14.5 km/h
834 16-03-2019 21:25:00 10.2 C 7.42 g/m*3 7.86 C 17.7 km/h
835 16-03-2019 21:30:00 10.2 C 7.42 g/m*3 7.54 C 20.9 km/h
836 16-03-2019 21:35:00 10.3 C 7.47 g/m*3 8.34 C 14.5 km/h
837 16-03-2019 21:40:00 10.2 C 7.42 g/m*3 7.7 C 19.3 km/h
838 16-03-2019 21:45:00 10.2 C 7.42 g/m*3 7.86 C 17.7 km/h
839 16-03-2019 21:50:00 10.1 C 7.47 g/m*3 8.8 C 9.7 km/h
840 16-03-2019 21:55:00 10 C 7.42 g/m*3 8.42 C 11.3 km/h
841 16-03-2019 22:00:00 10 C 7.42 g/m*3 7.98 C 14.5 km/h
842 16-03-2019 22:05:00 10 C 7.42 g/m*3 7.29 C 20.9 km/h
843 16-03-2019 22:10:00 10.1 C 7.47 g/m*3 8.1 C 14.5 km/h
844 16-03-2019 22:15:00 10 C 7.52 g/m*3 8.19 C 12.9 km/h
845 16-03-2019 22:20:00 10 C 7.42 g/m*3 7.15 C 22.5 km/h
846 16-03-2019 22:25:00 10.1 C 7.47 g/m*3 7.91 C 16.1 km/h
847 16-03-2019 22:30:00 10.1 C 7.47 g/m*3 7.14 C 24.1 km/h
848 16-03-2019 22:35:00 10.1 C 7.47 g/m*3 8.31 C 12.9 km/h
849 16-03-2019 22:40:00 10.1 C 7.47 g/m*3 7.28 C 22.5 km/h
850 16-03-2019 22:45:00 10.2 C 7.52 g/m*3 7.14 C 25.7 km/h
Sensor: Nr:Datum:Temp:Abs-Feuchte:Windchill:Wind:
Aussen-T/F 851 16-03-2019 22:50:00 10.2 C 7.52 g/m*3 7.4 C 22.5 km/h
852 16-03-2019 22:55:00 10.2 C 7.52 g/m*3 7.54 C 20.9 km/h
853 16-03-2019 23:00:00 10.2 C 7.52 g/m*3 7.4 C 22.5 km/h
854 16-03-2019 23:05:00 10.1 C 7.47 g/m*3 8.1 C 14.5 km/h
855 16-03-2019 23:10:00 10.1 C 7.47 g/m*3 7.42 C 20.9 km/h
856 16-03-2019 23:15:00 10.1 C 7.47 g/m*3 7.91 C 16.1 km/h
857 16-03-2019 23:20:00 10.1 C 7.56 g/m*3 7.57 C 19.3 km/h
858 16-03-2019 23:25:00 10 C 7.52 g/m*3 7.61 C 17.7 km/h
859 16-03-2019 23:30:00 10.1 C 7.47 g/m*3 7.73 C 17.7 km/h
860 16-03-2019 23:35:00 10.1 C 7.47 g/m*3 7.73 C 17.7 km/h
861 16-03-2019 23:40:00 10.1 C 7.47 g/m*3 7.73 C 17.7 km/h
862 16-03-2019 23:45:00 10.1 C 7.47 g/m*3 7.57 C 19.3 km/h
863 16-03-2019 23:50:00 10.2 C 7.42 g/m*3 7.7 C 19.3 km/h
864 16-03-2019 23:55:00 10.2 C 7.42 g/m*3 7.86 C 17.7 km/h

Legende:
   Min
   Max


Maximal/Minimal-Werte vom 14.03.2019 - 16.03.2019

Sensor Min Max Avg
Temp
(Aussen-T/F)
4.3 °C
14-03-2019  03:25:00
13.8 °C
15-03-2019  14:10:00
9.14 °C
Abs-Feuchte
(Aussen-T/F)
6.01 g/m*3
14-03-2019  03:00:00
9.85 g/m*3
15-03-2019  12:40:00
7.75 g/m*3
Windchill
(Aussen-T/F)
0.35 C
14-03-2019  00:50:00
13.8 C
15-03-2019  14:10:00
7.73 C

Die Daten stammen von einer Davis Vantage Pro 2 Wetter-Station und werden unter Linux mit der Software wview2wettercgi und aufbereitet. Alle Angaben erfolgen ohne Gewähr für ihre Vollständigkeit oder Richtigkeit.
Kontakt: Rainer Krienke krienke@uni-koblenz.de . Meine Webseiten an der Uni Koblenz oder privat.
Version: $Revision: 0.78 $